AGO7001 ZPPP-ZSNJ
Flight info
| Callsign | AGO7001 |
|---|---|
| Flight time | N/A |
| Altitude | 35100 |
| Route | NODIB1W NODIB W137 LPS A581 WHA R343 HFE W51 LEGIV W164 OREVO |
| Aircraft | A20N/M-SADE1E2E3GHIJ1J3J5M1P2RWXY/LB1 |
Departure
| Time | 2026-05-04 13:21 |
|---|---|
| Airport | Kunming Changshui International Airport (ZPPP) |
Arrival
| Time | N/A |
|---|---|
| Airport | Nanjing Lukou International Airport (ZSNJ) |
| Time | Latitude | Longitude | Altitude | Speed | Heading |
|---|---|---|---|---|---|
| 2026-05-04 12:21 | 25.10712 | 102.92990 | 6933 ft | 0 kts | 249° |
| 2026-05-04 12:54 | 25.10713 | 102.92994 | 6935 ft | 2 kts | 249° |
| 2026-05-04 12:54 | 25.10717 | 102.93010 | 6935 ft | 2 kts | 262° |
| 2026-05-04 12:54 | 25.10718 | 102.93027 | 6934 ft | 2 kts | 271° |
| 2026-05-04 12:54 | 25.10716 | 102.93043 | 6933 ft | 2 kts | 281° |
| 2026-05-04 12:55 | 25.10712 | 102.93059 | 6931 ft | 2 kts | 291° |
| 2026-05-04 12:55 | 25.10706 | 102.93073 | 6929 ft | 2 kts | 301° |
| 2026-05-04 12:55 | 25.10697 | 102.93087 | 6926 ft | 2 kts | 311° |
| 2026-05-04 12:55 | 25.10686 | 102.93098 | 6923 ft | 2 kts | 321° |
| 2026-05-04 12:56 | 25.10674 | 102.93108 | 6920 ft | 2 kts | 331° |
| 2026-05-04 12:56 | 25.10661 | 102.93115 | 6917 ft | 1 kts | 341° |
| 2026-05-04 12:56 | 25.10655 | 102.93117 | 6916 ft | 1 kts | 345° |
| 2026-05-04 12:56 | 25.10653 | 102.93117 | 6916 ft | 0 kts | 344° |
| 2026-05-04 13:00 | 25.10638 | 102.93122 | 6913 ft | 0 kts | 343° |
| 2026-05-04 13:00 | 25.10735 | 102.93088 | 6935 ft | 14 kts | 341° |
| 2026-05-04 13:00 | 25.10774 | 102.93072 | 6944 ft | 0 kts | 340° |
| 2026-05-04 13:01 | 25.10806 | 102.93058 | 6952 ft | 11 kts | 332° |
| 2026-05-04 13:01 | 25.10875 | 102.92979 | 6972 ft | 15 kts | 309° |
| 2026-05-04 13:01 | 25.10931 | 102.92905 | 6986 ft | 9 kts | 309° |
| 2026-05-04 13:01 | 25.10973 | 102.92847 | 6998 ft | 9 kts | 308° |
| 2026-05-04 13:02 | 25.11014 | 102.92788 | 7004 ft | 8 kts | 307° |
| 2026-05-04 13:02 | 25.11058 | 102.92725 | 7005 ft | 10 kts | 311° |
| 2026-05-04 13:02 | 25.11119 | 102.92725 | 7006 ft | 10 kts | 38° |
| 2026-05-04 13:02 | 25.11167 | 102.92767 | 7008 ft | 8 kts | 39° |
| 2026-05-04 13:03 | 25.11227 | 102.92820 | 7003 ft | 13 kts | 36° |
| 2026-05-04 13:03 | 25.11311 | 102.92888 | 6997 ft | 14 kts | 39° |
| 2026-05-04 13:03 | 25.11388 | 102.92956 | 6994 ft | 14 kts | 39° |
| 2026-05-04 13:03 | 25.11458 | 102.93017 | 6991 ft | 10 kts | 38° |
| 2026-05-04 13:04 | 25.11510 | 102.93061 | 6990 ft | 8 kts | 38° |
| 2026-05-04 13:04 | 25.11566 | 102.93110 | 6985 ft | 11 kts | 39° |
| 2026-05-04 13:04 | 25.11614 | 102.93152 | 6982 ft | 5 kts | 39° |
| 2026-05-04 13:04 | 25.11658 | 102.93191 | 6978 ft | 9 kts | 39° |
| 2026-05-04 13:05 | 25.11716 | 102.93242 | 6970 ft | 13 kts | 39° |
| 2026-05-04 13:05 | 25.11812 | 102.93325 | 6951 ft | 17 kts | 38° |
| 2026-05-04 13:05 | 25.11892 | 102.93394 | 6927 ft | 15 kts | 39° |
| 2026-05-04 13:05 | 25.11973 | 102.93466 | 6901 ft | 14 kts | 38° |
| 2026-05-04 13:06 | 25.12062 | 102.93543 | 6875 ft | 14 kts | 39° |
| 2026-05-04 13:06 | 25.12139 | 102.93610 | 6853 ft | 13 kts | 39° |
| 2026-05-04 13:06 | 25.12209 | 102.93671 | 6838 ft | 11 kts | 38° |
| 2026-05-04 13:06 | 25.12291 | 102.93742 | 6825 ft | 15 kts | 38° |
| 2026-05-04 13:07 | 25.12378 | 102.93819 | 6814 ft | 14 kts | 39° |
| 2026-05-04 13:07 | 25.12439 | 102.93871 | 6812 ft | 6 kts | 39° |
| 2026-05-04 13:07 | 25.12478 | 102.93906 | 6809 ft | 9 kts | 38° |
| 2026-05-04 13:07 | 25.12538 | 102.93958 | 6808 ft | 9 kts | 38° |
| 2026-05-04 13:08 | 25.12584 | 102.93998 | 6809 ft | 8 kts | 38° |
| 2026-05-04 13:08 | 25.12623 | 102.94032 | 6811 ft | 6 kts | 39° |
| 2026-05-04 13:08 | 25.12664 | 102.94068 | 6810 ft | 9 kts | 38° |
| 2026-05-04 13:08 | 25.12708 | 102.94106 | 6812 ft | 6 kts | 38° |
| 2026-05-04 13:09 | 25.12729 | 102.94125 | 6814 ft | 0 kts | 38° |
| 2026-05-04 13:10 | 25.12738 | 102.94132 | 6814 ft | 4 kts | 38° |
| 2026-05-04 13:10 | 25.12773 | 102.94163 | 6816 ft | 5 kts | 38° |
| 2026-05-04 13:11 | 25.12811 | 102.94196 | 6819 ft | 7 kts | 38° |
| 2026-05-04 13:11 | 25.12826 | 102.94208 | 6819 ft | 0 kts | 38° |
| 2026-05-04 13:11 | 25.12826 | 102.94209 | 6819 ft | 0 kts | 38° |
| 2026-05-04 13:11 | 25.12836 | 102.94217 | 6819 ft | 3 kts | 38° |
| 2026-05-04 13:12 | 25.12858 | 102.94236 | 6819 ft | 4 kts | 39° |
| 2026-05-04 13:12 | 25.12872 | 102.94250 | 6820 ft | 0 kts | 39° |
| 2026-05-04 13:14 | 25.12884 | 102.94260 | 6820 ft | 4 kts | 38° |
| 2026-05-04 13:14 | 25.12915 | 102.94284 | 6820 ft | 5 kts | 21° |
| 2026-05-04 13:14 | 25.12938 | 102.94281 | 6820 ft | 2 kts | 322° |
| 2026-05-04 13:14 | 25.12944 | 102.94276 | 6821 ft | 0 kts | 314° |
| 2026-05-04 13:15 | 25.12943 | 102.94276 | 6821 ft | 0 kts | 314° |
| 2026-05-04 13:15 | 25.12944 | 102.94276 | 6821 ft | 0 kts | 313° |
| 2026-05-04 13:15 | 25.12947 | 102.94272 | 6821 ft | 1 kts | 310° |
| 2026-05-04 13:15 | 25.12948 | 102.94270 | 6821 ft | 0 kts | 309° |
| 2026-05-04 13:16 | 25.12952 | 102.94265 | 6821 ft | 2 kts | 309° |
| 2026-05-04 13:16 | 25.12968 | 102.94243 | 6822 ft | 5 kts | 308° |
| 2026-05-04 13:16 | 25.12976 | 102.94231 | 6823 ft | 0 kts | 308° |
| 2026-05-04 13:17 | 25.12978 | 102.94229 | 6823 ft | 1 kts | 308° |
| 2026-05-04 13:17 | 25.12988 | 102.94215 | 6824 ft | 1 kts | 308° |
| 2026-05-04 13:18 | 25.12992 | 102.94210 | 6824 ft | 1 kts | 308° |
| 2026-05-04 13:18 | 25.13002 | 102.94195 | 6825 ft | 3 kts | 308° |
| 2026-05-04 13:18 | 25.13017 | 102.94174 | 6826 ft | 3 kts | 308° |
| 2026-05-04 13:18 | 25.13024 | 102.94149 | 6827 ft | 4 kts | 254° |
| 2026-05-04 13:19 | 25.13014 | 102.94136 | 6827 ft | 0 kts | 220° |
| 2026-05-04 13:20 | 25.12997 | 102.94121 | 6827 ft | 18 kts | 219° |
| 2026-05-04 13:20 | 25.12669 | 102.93838 | 6811 ft | 99 kts | 218° |
| 2026-05-04 13:20 | 25.11960 | 102.93218 | 6905 ft | 153 kts | 218° |
| 2026-05-04 13:21 | 25.11116 | 102.92453 | 7479 ft | 157 kts | 219° |
| 2026-05-04 13:21 | 25.10286 | 102.91713 | 8177 ft | 157 kts | 219° |
| 2026-05-04 13:21 | 25.09483 | 102.90887 | 8807 ft | 164 kts | 229° |
| 2026-05-04 13:21 | 25.08788 | 102.89831 | 9323 ft | 179 kts | 238° |
| 2026-05-04 13:22 | 25.08079 | 102.88627 | 9844 ft | 196 kts | 235° |
| 2026-05-04 13:22 | 25.07254 | 102.87359 | 10344 ft | 215 kts | 235° |
| 2026-05-04 13:22 | 25.06323 | 102.85958 | 10768 ft | 236 kts | 235° |
| 2026-05-04 13:22 | 25.05315 | 102.84459 | 11210 ft | 253 kts | 235° |
| 2026-05-04 13:23 | 25.04252 | 102.82887 | 11829 ft | 262 kts | 236° |
| 2026-05-04 13:23 | 25.03149 | 102.81261 | 12601 ft | 265 kts | 236° |
| 2026-05-04 13:23 | 25.02043 | 102.79634 | 13371 ft | 268 kts | 237° |
| 2026-05-04 13:23 | 25.00932 | 102.77995 | 14124 ft | 271 kts | 237° |
| 2026-05-04 13:24 | 24.99611 | 102.76521 | 14827 ft | 282 kts | 217° |
| 2026-05-04 13:24 | 24.97737 | 102.75754 | 15543 ft | 297 kts | 192° |
| 2026-05-04 13:24 | 24.95656 | 102.75948 | 16243 ft | 312 kts | 166° |
| 2026-05-04 13:25 | 24.92423 | 102.79240 | 17658 ft | 333 kts | 123° |
| 2026-05-04 13:25 | 24.91250 | 102.81433 | 18337 ft | 338 kts | 122° |
| 2026-05-04 13:25 | 24.90051 | 102.83674 | 19028 ft | 342 kts | 122° |
| 2026-05-04 13:25 | 24.88828 | 102.85902 | 19699 ft | 346 kts | 123° |
| 2026-05-04 13:26 | 24.87561 | 102.88166 | 20358 ft | 350 kts | 123° |
| 2026-05-04 13:26 | 24.86273 | 102.90447 | 20998 ft | 354 kts | 123° |
| 2026-05-04 13:26 | 24.84958 | 102.92770 | 21559 ft | 361 kts | 123° |
| 2026-05-04 13:26 | 24.83613 | 102.95142 | 21856 ft | 377 kts | 123° |
| 2026-05-04 13:27 | 24.82247 | 102.97677 | 22115 ft | 394 kts | 115° |
| 2026-05-04 13:27 | 24.81542 | 103.00639 | 22351 ft | 408 kts | 90° |
| 2026-05-04 13:27 | 24.81913 | 103.03734 | 22591 ft | 415 kts | 67° |
| 2026-05-04 13:27 | 24.83313 | 103.06494 | 22818 ft | 417 kts | 44° |
| 2026-05-04 13:28 | 24.85534 | 103.08553 | 23061 ft | 419 kts | 28° |
| 2026-05-04 13:28 | 24.88003 | 103.10349 | 23288 ft | 432 kts | 28° |
| 2026-05-04 13:28 | 24.90511 | 103.12199 | 23631 ft | 441 kts | 29° |
| 2026-05-04 13:28 | 24.93060 | 103.14114 | 24127 ft | 445 kts | 29° |
| 2026-05-04 13:29 | 24.95618 | 103.16055 | 24625 ft | 449 kts | 29° |
| 2026-05-04 13:29 | 24.98175 | 103.18008 | 25095 ft | 452 kts | 29° |
| 2026-05-04 13:29 | 25.00797 | 103.20016 | 25548 ft | 456 kts | 29° |
| 2026-05-04 13:29 | 25.03391 | 103.22008 | 26005 ft | 459 kts | 29° |
| 2026-05-04 13:30 | 25.06024 | 103.24033 | 26444 ft | 462 kts | 29° |
| 2026-05-04 13:30 | 25.08670 | 103.26067 | 26878 ft | 465 kts | 28° |
| 2026-05-04 13:30 | 25.11333 | 103.28117 | 27259 ft | 469 kts | 28° |
| 2026-05-04 13:30 | 25.14021 | 103.30187 | 27676 ft | 472 kts | 28° |
| 2026-05-04 13:31 | 25.16711 | 103.32260 | 28080 ft | 474 kts | 28° |
| 2026-05-04 13:31 | 25.19407 | 103.34339 | 28466 ft | 477 kts | 28° |
| 2026-05-04 13:31 | 25.22152 | 103.36455 | 28824 ft | 480 kts | 28° |
| 2026-05-04 13:31 | 25.24882 | 103.38561 | 29153 ft | 484 kts | 28° |
| 2026-05-04 13:32 | 25.27639 | 103.40690 | 29488 ft | 486 kts | 28° |
| 2026-05-04 13:32 | 25.30439 | 103.42856 | 29911 ft | 487 kts | 28° |
| 2026-05-04 13:32 | 25.33175 | 103.44974 | 30422 ft | 484 kts | 28° |
| 2026-05-04 13:32 | 25.35941 | 103.47120 | 30930 ft | 482 kts | 28° |
| 2026-05-04 13:33 | 25.38687 | 103.49246 | 31365 ft | 482 kts | 28° |
| 2026-05-04 13:33 | 25.41400 | 103.51349 | 31780 ft | 481 kts | 28° |
| 2026-05-04 13:33 | 25.44130 | 103.53465 | 32198 ft | 481 kts | 27° |
| 2026-05-04 13:33 | 25.46865 | 103.55661 | 32581 ft | 484 kts | 30° |
| 2026-05-04 13:34 | 25.49475 | 103.58035 | 33017 ft | 488 kts | 34° |
| 2026-05-04 13:34 | 25.51931 | 103.60584 | 33509 ft | 490 kts | 38° |
| 2026-05-04 13:34 | 25.54276 | 103.63367 | 34026 ft | 491 kts | 42° |
| 2026-05-04 13:34 | 25.56437 | 103.66305 | 34537 ft | 492 kts | 47° |
| 2026-05-04 13:35 | 25.58415 | 103.69393 | 35006 ft | 494 kts | 51° |
| 2026-05-04 13:35 | 25.62100 | 103.75746 | 35823 ft | 492 kts | 52° |
| 2026-05-04 13:35 | 25.63927 | 103.78932 | 36124 ft | 492 kts | 52° |
| 2026-05-04 13:36 | 25.65770 | 103.82134 | 36349 ft | 494 kts | 52° |
| 2026-05-04 13:36 | 25.67630 | 103.85354 | 36559 ft | 496 kts | 51° |
| 2026-05-04 13:36 | 25.69476 | 103.88546 | 36815 ft | 496 kts | 51° |
| 2026-05-04 13:36 | 25.71345 | 103.91778 | 37079 ft | 496 kts | 51° |
| 2026-05-04 13:37 | 25.73206 | 103.94995 | 37305 ft | 497 kts | 51° |
| 2026-05-04 13:37 | 25.75079 | 103.98232 | 37430 ft | 498 kts | 51° |
| 2026-05-04 13:37 | 25.76932 | 104.01440 | 37434 ft | 499 kts | 51° |
| 2026-05-04 13:38 | 25.80683 | 104.07923 | 37433 ft | 500 kts | 51° |
| 2026-05-04 13:38 | 25.84463 | 104.14348 | 37430 ft | 501 kts | 51° |
| 2026-05-04 13:39 | 25.88274 | 104.20822 | 37418 ft | 502 kts | 51° |
| 2026-05-04 13:39 | 25.92076 | 104.27308 | 37408 ft | 502 kts | 51° |
| 2026-05-04 13:40 | 25.95892 | 104.33827 | 37401 ft | 502 kts | 51° |
| 2026-05-04 13:40 | 25.99762 | 104.40261 | 37390 ft | 499 kts | 47° |
| 2026-05-04 13:41 | 26.04125 | 104.46165 | 37393 ft | 494 kts | 40° |
| 2026-05-04 13:41 | 26.09037 | 104.51411 | 37388 ft | 485 kts | 33° |
| 2026-05-04 13:42 | 26.16791 | 104.58589 | 37378 ft | 483 kts | 32° |
| 2026-05-04 13:42 | 26.21971 | 104.63378 | 37374 ft | 484 kts | 32° |
| 2026-05-04 13:43 | 26.27136 | 104.68179 | 37374 ft | 485 kts | 32° |
| 2026-05-04 13:43 | 26.32280 | 104.72971 | 37374 ft | 485 kts | 32° |
| 2026-05-04 13:44 | 26.37441 | 104.77786 | 37373 ft | 486 kts | 32° |
| 2026-05-04 13:44 | 26.42640 | 104.82645 | 37371 ft | 486 kts | 32° |
| 2026-05-04 13:45 | 26.47825 | 104.87495 | 37373 ft | 487 kts | 32° |
| 2026-05-04 13:45 | 26.53008 | 104.92348 | 37374 ft | 487 kts | 32° |
| 2026-05-04 13:46 | 26.58147 | 104.97253 | 37371 ft | 491 kts | 35° |
| 2026-05-04 13:46 | 26.62843 | 105.02898 | 37370 ft | 500 kts | 44° |
| 2026-05-04 13:47 | 26.66768 | 105.09377 | 37372 ft | 511 kts | 54° |
| 2026-05-04 13:47 | 26.69872 | 105.16505 | 37374 ft | 516 kts | 60° |
| 2026-05-04 13:48 | 26.72769 | 105.23852 | 37376 ft | 516 kts | 60° |
| 2026-05-04 13:48 | 26.75677 | 105.31188 | 37371 ft | 517 kts | 60° |
| 2026-05-04 13:49 | 26.78590 | 105.38493 | 37361 ft | 516 kts | 59° |
| 2026-05-04 13:49 | 26.81506 | 105.45792 | 37363 ft | 517 kts | 59° |
| 2026-05-04 13:50 | 26.84433 | 105.53132 | 37353 ft | 518 kts | 59° |
| 2026-05-04 13:50 | 26.87369 | 105.60507 | 37347 ft | 518 kts | 59° |
| 2026-05-04 13:51 | 26.90280 | 105.67835 | 37339 ft | 518 kts | 60° |
| 2026-05-04 13:51 | 26.93202 | 105.75201 | 37340 ft | 518 kts | 60° |
| 2026-05-04 13:52 | 26.97579 | 105.86265 | 37324 ft | 519 kts | 60° |
| 2026-05-04 13:53 | 27.00490 | 105.93639 | 37318 ft | 519 kts | 60° |
| 2026-05-04 13:53 | 27.03397 | 106.01017 | 37311 ft | 519 kts | 60° |
| 2026-05-04 13:54 | 27.08177 | 106.11797 | 37312 ft | 514 kts | 56° |
| 2026-05-04 13:55 | 27.13086 | 106.22489 | 37312 ft | 516 kts | 56° |
| 2026-05-04 13:55 | 27.17957 | 106.33190 | 37307 ft | 516 kts | 56° |
| 2026-05-04 13:56 | 27.21212 | 106.40356 | 37299 ft | 516 kts | 56° |
| 2026-05-04 13:57 | 27.26104 | 106.51122 | 37283 ft | 516 kts | 56° |
| 2026-05-04 13:58 | 27.32540 | 106.65340 | 37268 ft | 516 kts | 56° |
| 2026-05-04 13:58 | 27.37420 | 106.76153 | 37264 ft | 517 kts | 56° |
| 2026-05-04 13:59 | 27.40656 | 106.83375 | 37263 ft | 517 kts | 56° |
| 2026-05-04 14:00 | 27.45480 | 106.94170 | 37259 ft | 517 kts | 56° |
| 2026-05-04 14:00 | 27.50347 | 107.05006 | 37262 ft | 518 kts | 56° |
| 2026-05-04 14:01 | 27.53638 | 107.12264 | 37263 ft | 519 kts | 56° |
| 2026-05-04 14:02 | 27.58524 | 107.23097 | 37254 ft | 519 kts | 56° |
| 2026-05-04 14:02 | 27.61784 | 107.30328 | 37251 ft | 519 kts | 56° |
| 2026-05-04 14:03 | 27.65037 | 107.37551 | 37247 ft | 519 kts | 56° |
| 2026-05-04 14:03 | 27.68296 | 107.44807 | 37246 ft | 519 kts | 56° |
| 2026-05-04 14:04 | 27.73207 | 107.55767 | 37244 ft | 521 kts | 56° |
| 2026-05-04 14:04 | 27.76449 | 107.63023 | 37247 ft | 520 kts | 56° |
| 2026-05-04 14:05 | 27.81328 | 107.73965 | 37254 ft | 521 kts | 56° |
| 2026-05-04 14:06 | 27.84605 | 107.81258 | 37249 ft | 521 kts | 56° |
| 2026-05-04 14:06 | 27.87927 | 107.88502 | 37237 ft | 521 kts | 56° |
| 2026-05-04 14:07 | 27.91249 | 107.95758 | 37227 ft | 522 kts | 56° |
| 2026-05-04 14:07 | 27.94576 | 108.03058 | 37219 ft | 522 kts | 56° |
| 2026-05-04 14:08 | 27.97876 | 108.10313 | 37217 ft | 523 kts | 56° |
| 2026-05-04 14:08 | 28.01190 | 108.17614 | 37215 ft | 523 kts | 56° |
| 2026-05-04 14:09 | 28.06178 | 108.28634 | 37206 ft | 523 kts | 56° |
| 2026-05-04 14:10 | 28.11114 | 108.39564 | 37205 ft | 523 kts | 56° |
| 2026-05-04 14:10 | 28.14435 | 108.46934 | 37204 ft | 523 kts | 56° |
| 2026-05-04 14:11 | 28.17728 | 108.54256 | 37203 ft | 523 kts | 56° |
| 2026-05-04 14:11 | 28.22658 | 108.65241 | 37217 ft | 524 kts | 56° |
| 2026-05-04 14:12 | 28.25825 | 108.72316 | 37227 ft | 524 kts | 56° |
| 2026-05-04 14:13 | 28.30760 | 108.83363 | 37228 ft | 524 kts | 56° |
| 2026-05-04 14:13 | 28.34050 | 108.90743 | 37216 ft | 525 kts | 56° |
| 2026-05-04 14:14 | 28.37330 | 108.98116 | 37203 ft | 524 kts | 56° |
| 2026-05-04 14:14 | 28.42246 | 109.09194 | 37190 ft | 526 kts | 56° |
| 2026-05-04 14:15 | 28.48789 | 109.24001 | 37172 ft | 526 kts | 56° |
| 2026-05-04 14:16 | 28.53678 | 109.35123 | 37173 ft | 526 kts | 56° |
| 2026-05-04 14:17 | 28.58467 | 109.46349 | 37172 ft | 530 kts | 60° |
| 2026-05-04 14:18 | 28.62509 | 109.58083 | 37171 ft | 532 kts | 62° |
| 2026-05-04 14:19 | 28.67927 | 109.73701 | 37162 ft | 532 kts | 61° |
| 2026-05-04 14:19 | 28.70722 | 109.81433 | 37168 ft | 532 kts | 61° |
| 2026-05-04 14:20 | 28.73531 | 109.89244 | 37181 ft | 532 kts | 62° |
| 2026-05-04 14:20 | 28.76309 | 109.97017 | 37190 ft | 533 kts | 62° |
| 2026-05-04 14:21 | 28.80493 | 110.08775 | 37198 ft | 533 kts | 61° |
| 2026-05-04 14:21 | 28.83254 | 110.16547 | 37188 ft | 533 kts | 62° |
| 2026-05-04 14:22 | 28.86034 | 110.24387 | 37184 ft | 534 kts | 61° |
| 2026-05-04 14:22 | 28.88805 | 110.32222 | 37178 ft | 535 kts | 61° |
| 2026-05-04 14:23 | 28.92963 | 110.44010 | 37182 ft | 537 kts | 62° |
| 2026-05-04 14:24 | 28.95728 | 110.51884 | 37186 ft | 535 kts | 62° |
| 2026-05-04 14:24 | 28.98498 | 110.59777 | 37188 ft | 536 kts | 62° |
| 2026-05-04 14:25 | 29.01266 | 110.67689 | 37176 ft | 536 kts | 62° |
| 2026-05-04 14:25 | 29.05440 | 110.79541 | 37171 ft | 537 kts | 62° |
| 2026-05-04 14:26 | 29.08233 | 110.87404 | 37172 ft | 538 kts | 62° |
| 2026-05-04 14:26 | 29.11029 | 110.95314 | 37171 ft | 535 kts | 62° |
| 2026-05-04 14:27 | 29.12408 | 110.99229 | 37170 ft | 518 kts | 62° |
| 2026-05-04 14:27 | 29.13723 | 111.02986 | 37173 ft | 507 kts | 62° |
| 2026-05-04 14:27 | 29.16337 | 111.10401 | 37161 ft | 505 kts | 61° |
| 2026-05-04 14:28 | 29.18970 | 111.17873 | 37151 ft | 506 kts | 62° |
| 2026-05-04 14:28 | 29.21555 | 111.25265 | 37137 ft | 492 kts | 62° |
| 2026-05-04 14:29 | 29.26630 | 111.39757 | 37137 ft | 504 kts | 62° |
| 2026-05-04 14:30 | 29.29266 | 111.47315 | 37134 ft | 519 kts | 62° |
| 2026-05-04 14:30 | 29.31842 | 111.54779 | 37122 ft | 483 kts | 61° |
| 2026-05-04 14:31 | 29.33052 | 111.58293 | 37126 ft | 477 kts | 61° |
| 2026-05-04 14:31 | 29.35716 | 111.65137 | 37129 ft | 466 kts | 54° |
| 2026-05-04 14:32 | 29.39033 | 111.71423 | 37133 ft | 471 kts | 48° |
| 2026-05-04 14:32 | 29.42720 | 111.77756 | 37131 ft | 487 kts | 48° |
| 2026-05-04 14:33 | 29.46515 | 111.84328 | 37129 ft | 503 kts | 49° |
| 2026-05-04 14:33 | 29.50406 | 111.91135 | 37129 ft | 516 kts | 49° |
| 2026-05-04 14:34 | 29.54378 | 111.98115 | 37128 ft | 527 kts | 49° |
| 2026-05-04 14:34 | 29.58380 | 112.05163 | 37130 ft | 528 kts | 49° |
| 2026-05-04 14:35 | 29.62382 | 112.12218 | 37131 ft | 529 kts | 50° |
| 2026-05-04 14:35 | 29.66371 | 112.19262 | 37131 ft | 528 kts | 49° |
| 2026-05-04 14:36 | 29.70372 | 112.26335 | 37131 ft | 528 kts | 50° |
| 2026-05-04 14:36 | 29.74367 | 112.33406 | 37131 ft | 529 kts | 50° |
| 2026-05-04 14:37 | 29.78355 | 112.40515 | 37130 ft | 528 kts | 50° |
| 2026-05-04 14:37 | 29.82327 | 112.47616 | 37125 ft | 528 kts | 50° |
| 2026-05-04 14:38 | 29.86289 | 112.54710 | 37124 ft | 527 kts | 50° |
| 2026-05-04 14:38 | 29.90248 | 112.61805 | 37120 ft | 528 kts | 50° |
| 2026-05-04 14:39 | 29.94204 | 112.68903 | 37119 ft | 529 kts | 51° |
| 2026-05-04 14:39 | 29.98152 | 112.76016 | 37122 ft | 529 kts | 50° |
| 2026-05-04 14:40 | 30.04088 | 112.86719 | 37131 ft | 530 kts | 51° |
| 2026-05-04 14:40 | 30.08051 | 112.93890 | 37125 ft | 527 kts | 51° |
| 2026-05-04 14:41 | 30.11993 | 113.01025 | 37132 ft | 528 kts | 51° |
| 2026-05-04 14:42 | 30.19863 | 113.15317 | 37133 ft | 529 kts | 51° |
| 2026-05-04 14:42 | 30.23804 | 113.22438 | 37140 ft | 527 kts | 50° |
| 2026-05-04 14:43 | 30.27806 | 113.29541 | 37139 ft | 528 kts | 50° |
| 2026-05-04 14:43 | 30.31788 | 113.36636 | 37136 ft | 527 kts | 51° |
| 2026-05-04 14:44 | 30.35764 | 113.43742 | 37136 ft | 527 kts | 51° |
| 2026-05-04 14:44 | 30.39740 | 113.50862 | 37140 ft | 526 kts | 51° |
| 2026-05-04 14:45 | 30.43673 | 113.57925 | 37138 ft | 526 kts | 51° |
| 2026-05-04 14:45 | 30.47626 | 113.65030 | 37138 ft | 526 kts | 51° |
| 2026-05-04 14:46 | 30.51588 | 113.72164 | 37136 ft | 527 kts | 52° |
| 2026-05-04 14:46 | 30.55525 | 113.79274 | 37144 ft | 525 kts | 52° |
| 2026-05-04 14:47 | 30.59477 | 113.86414 | 37133 ft | 526 kts | 52° |
| 2026-05-04 14:47 | 30.63415 | 113.93548 | 37141 ft | 525 kts | 52° |
| 2026-05-04 14:48 | 30.67326 | 114.00628 | 37130 ft | 525 kts | 52° |
| 2026-05-04 14:48 | 30.71248 | 114.07744 | 37134 ft | 524 kts | 52° |
| 2026-05-04 14:49 | 30.75178 | 114.14888 | 37133 ft | 525 kts | 52° |
| 2026-05-04 14:49 | 30.78737 | 114.22366 | 37139 ft | 530 kts | 60° |
| 2026-05-04 14:50 | 30.81541 | 114.30262 | 37137 ft | 534 kts | 66° |
| 2026-05-04 14:50 | 30.84105 | 114.38379 | 37137 ft | 534 kts | 66° |
| 2026-05-04 14:51 | 30.86670 | 114.46442 | 37135 ft | 534 kts | 65° |
| 2026-05-04 14:51 | 30.89294 | 114.54515 | 37138 ft | 533 kts | 65° |
| 2026-05-04 14:52 | 30.91901 | 114.62522 | 37138 ft | 534 kts | 65° |
| 2026-05-04 14:52 | 30.94420 | 114.70304 | 37137 ft | 533 kts | 66° |
| 2026-05-04 14:53 | 30.97030 | 114.78397 | 37140 ft | 533 kts | 66° |
| 2026-05-04 14:53 | 30.99629 | 114.86472 | 37126 ft | 533 kts | 66° |
| 2026-05-04 14:54 | 31.02215 | 114.94525 | 37201 ft | 534 kts | 66° |
| 2026-05-04 14:54 | 31.04798 | 115.02593 | 37156 ft | 532 kts | 66° |
| 2026-05-04 14:55 | 31.07393 | 115.10712 | 37159 ft | 533 kts | 66° |
| 2026-05-04 14:55 | 31.09952 | 115.18748 | 37180 ft | 533 kts | 67° |
| 2026-05-04 14:56 | 31.12532 | 115.26894 | 37187 ft | 533 kts | 67° |
| 2026-05-04 14:56 | 31.15117 | 115.34963 | 37193 ft | 533 kts | 66° |
| 2026-05-04 14:57 | 31.17739 | 115.43018 | 37204 ft | 533 kts | 66° |
| 2026-05-04 14:57 | 31.20339 | 115.51053 | 37216 ft | 532 kts | 66° |
| 2026-05-04 14:58 | 31.22938 | 115.59122 | 37229 ft | 533 kts | 66° |
| 2026-05-04 14:58 | 31.25105 | 115.65865 | 37244 ft | 532 kts | 66° |
| 2026-05-04 14:59 | 31.28129 | 115.75298 | 37265 ft | 531 kts | 66° |
| 2026-05-04 15:00 | 31.31986 | 115.87376 | 37171 ft | 532 kts | 67° |
| 2026-05-04 15:00 | 31.34609 | 115.95473 | 37220 ft | 532 kts | 66° |
| 2026-05-04 15:01 | 31.38560 | 116.07578 | 36967 ft | 531 kts | 66° |
| 2026-05-04 15:01 | 31.39862 | 116.11580 | 36717 ft | 529 kts | 66° |
| 2026-05-04 15:01 | 31.41168 | 116.15598 | 36461 ft | 526 kts | 66° |
| 2026-05-04 15:02 | 31.42463 | 116.19595 | 36195 ft | 523 kts | 66° |
| 2026-05-04 15:02 | 31.43742 | 116.23553 | 35952 ft | 520 kts | 66° |
| 2026-05-04 15:02 | 31.45016 | 116.27496 | 35707 ft | 519 kts | 66° |
| 2026-05-04 15:02 | 31.46279 | 116.31402 | 35457 ft | 519 kts | 66° |
| 2026-05-04 15:03 | 31.47556 | 116.35355 | 35226 ft | 519 kts | 66° |
| 2026-05-04 15:03 | 31.48825 | 116.39298 | 35019 ft | 518 kts | 66° |
| 2026-05-04 15:03 | 31.50081 | 116.43206 | 34841 ft | 517 kts | 66° |
| 2026-05-04 15:03 | 31.51354 | 116.47166 | 34634 ft | 517 kts | 66° |
| 2026-05-04 15:04 | 31.52605 | 116.51067 | 34448 ft | 516 kts | 66° |
| 2026-05-04 15:04 | 31.53863 | 116.54990 | 34252 ft | 515 kts | 66° |
| 2026-05-04 15:04 | 31.55128 | 116.58944 | 34036 ft | 515 kts | 67° |
| 2026-05-04 15:04 | 31.56374 | 116.62842 | 33853 ft | 515 kts | 66° |
| 2026-05-04 15:05 | 31.57622 | 116.66751 | 33631 ft | 514 kts | 67° |
| 2026-05-04 15:05 | 31.58878 | 116.70687 | 33424 ft | 514 kts | 68° |
| 2026-05-04 15:05 | 31.60131 | 116.74623 | 33211 ft | 513 kts | 67° |
| 2026-05-04 15:05 | 31.61359 | 116.78484 | 32998 ft | 511 kts | 67° |
| 2026-05-04 15:06 | 31.62607 | 116.82410 | 32778 ft | 511 kts | 68° |
| 2026-05-04 15:06 | 31.63835 | 116.86282 | 32568 ft | 509 kts | 68° |
| 2026-05-04 15:06 | 31.65060 | 116.90147 | 32355 ft | 508 kts | 68° |
| 2026-05-04 15:07 | 31.67508 | 116.97887 | 31914 ft | 506 kts | 68° |
| 2026-05-04 15:07 | 31.68721 | 117.01736 | 31685 ft | 505 kts | 68° |
| 2026-05-04 15:07 | 31.69926 | 117.05602 | 31459 ft | 504 kts | 68° |
| 2026-05-04 15:07 | 31.71127 | 117.09491 | 31240 ft | 503 kts | 68° |
| 2026-05-04 15:08 | 31.72299 | 117.13294 | 31021 ft | 502 kts | 68° |
| 2026-05-04 15:08 | 31.73483 | 117.17136 | 30730 ft | 500 kts | 68° |
| 2026-05-04 15:08 | 31.74660 | 117.20978 | 30385 ft | 498 kts | 69° |
| 2026-05-04 15:08 | 31.75701 | 117.24840 | 30043 ft | 497 kts | 72° |
| 2026-05-04 15:09 | 31.76542 | 117.28782 | 29663 ft | 497 kts | 76° |
| 2026-05-04 15:09 | 31.77164 | 117.32746 | 29259 ft | 497 kts | 80° |
| 2026-05-04 15:09 | 31.77570 | 117.36713 | 28744 ft | 493 kts | 84° |
| 2026-05-04 15:10 | 31.77851 | 117.44698 | 27713 ft | 485 kts | 88° |
| 2026-05-04 15:10 | 31.77920 | 117.48654 | 27198 ft | 481 kts | 88° |
| 2026-05-04 15:10 | 31.78060 | 117.56397 | 26076 ft | 473 kts | 88° |
| 2026-05-04 15:11 | 31.78136 | 117.60248 | 25487 ft | 468 kts | 88° |
| 2026-05-04 15:11 | 31.78211 | 117.64013 | 24905 ft | 462 kts | 87° |
| 2026-05-04 15:11 | 31.78288 | 117.67767 | 24309 ft | 457 kts | 88° |
| 2026-05-04 15:11 | 31.78363 | 117.71468 | 23721 ft | 452 kts | 88° |
| 2026-05-04 15:12 | 31.78436 | 117.75133 | 23134 ft | 447 kts | 88° |
| 2026-05-04 15:12 | 31.78507 | 117.78702 | 22555 ft | 442 kts | 88° |
| 2026-05-04 15:12 | 31.78577 | 117.82291 | 21970 ft | 438 kts | 87° |
| 2026-05-04 15:12 | 31.78645 | 117.85842 | 21386 ft | 434 kts | 87° |
| 2026-05-04 15:13 | 31.78713 | 117.89376 | 20795 ft | 430 kts | 87° |
| 2026-05-04 15:13 | 31.78779 | 117.92840 | 20168 ft | 426 kts | 87° |
| 2026-05-04 15:13 | 31.78844 | 117.96288 | 19542 ft | 422 kts | 87° |
| 2026-05-04 15:13 | 31.78906 | 117.99709 | 18916 ft | 418 kts | 87° |
| 2026-05-04 15:14 | 31.78967 | 118.03114 | 18294 ft | 415 kts | 87° |
| 2026-05-04 15:14 | 31.79026 | 118.06481 | 17677 ft | 411 kts | 87° |
| 2026-05-04 15:14 | 31.79087 | 118.09813 | 17067 ft | 407 kts | 87° |
| 2026-05-04 15:14 | 31.79151 | 118.13088 | 16625 ft | 400 kts | 87° |
| 2026-05-04 15:15 | 31.79218 | 118.16354 | 16383 ft | 399 kts | 86° |
| 2026-05-04 15:15 | 31.79283 | 118.19596 | 16153 ft | 398 kts | 86° |
| 2026-05-04 15:15 | 31.79346 | 118.22835 | 15906 ft | 396 kts | 86° |
| 2026-05-04 15:16 | 31.79467 | 118.29256 | 15428 ft | 391 kts | 87° |
| 2026-05-04 15:16 | 31.79526 | 118.32442 | 15179 ft | 389 kts | 86° |
| 2026-05-04 15:16 | 31.79620 | 118.38789 | 14688 ft | 386 kts | 90° |
| 2026-05-04 15:17 | 31.79083 | 118.41843 | 14433 ft | 387 kts | 111° |
| 2026-05-04 15:17 | 31.75412 | 118.46204 | 13153 ft | 388 kts | 158° |
| 2026-05-04 15:17 | 31.72841 | 118.46788 | 11972 ft | 380 kts | 182° |
| 2026-05-04 15:18 | 31.70427 | 118.46113 | 10915 ft | 363 kts | 208° |
| 2026-05-04 15:18 | 31.68327 | 118.44656 | 10205 ft | 340 kts | 213° |
| 2026-05-04 15:18 | 31.66371 | 118.43249 | 9574 ft | 321 kts | 212° |
| 2026-05-04 15:19 | 31.62273 | 118.42529 | 8099 ft | 303 kts | 158° |
| 2026-05-04 15:19 | 31.60635 | 118.43955 | 7386 ft | 294 kts | 126° |
| 2026-05-04 15:19 | 31.60305 | 118.48303 | 6039 ft | 272 kts | 58° |
| 2026-05-04 15:20 | 31.61620 | 118.49782 | 5430 ft | 260 kts | 26° |
| 2026-05-04 15:20 | 31.63193 | 118.50716 | 4941 ft | 251 kts | 32° |
| 2026-05-04 15:20 | 31.64337 | 118.52168 | 4560 ft | 242 kts | 64° |
| 2026-05-04 15:20 | 31.64647 | 118.54049 | 4342 ft | 232 kts | 98° |
| 2026-05-04 15:21 | 31.64070 | 118.55748 | 4180 ft | 225 kts | 132° |
| 2026-05-04 15:21 | 31.62832 | 118.56819 | 3996 ft | 221 kts | 155° |
| 2026-05-04 15:21 | 31.60482 | 118.58963 | 3797 ft | 207 kts | 127° |
| 2026-05-04 15:22 | 31.60004 | 118.60525 | 3636 ft | 211 kts | 87° |
| 2026-05-04 15:22 | 31.60557 | 118.62094 | 3421 ft | 212 kts | 51° |
| 2026-05-04 15:22 | 31.62480 | 118.64708 | 2949 ft | 212 kts | 52° |
| 2026-05-04 15:23 | 31.63381 | 118.66099 | 2707 ft | 211 kts | 56° |
| 2026-05-04 15:23 | 31.64218 | 118.67490 | 2531 ft | 204 kts | 58° |
| 2026-05-04 15:23 | 31.64983 | 118.68851 | 2311 ft | 197 kts | 60° |
| 2026-05-04 15:23 | 31.65688 | 118.70158 | 2271 ft | 180 kts | 60° |
| 2026-05-04 15:24 | 31.66872 | 118.72386 | 2273 ft | 148 kts | 62° |
| 2026-05-04 15:24 | 31.67934 | 118.74394 | 2015 ft | 136 kts | 62° |
| 2026-05-04 15:25 | 31.68427 | 118.75320 | 1835 ft | 133 kts | 63° |
| 2026-05-04 15:25 | 31.68914 | 118.76238 | 1669 ft | 132 kts | 62° |
| 2026-05-04 15:25 | 31.69397 | 118.77146 | 1498 ft | 131 kts | 62° |
| 2026-05-04 15:26 | 31.70361 | 118.78958 | 1160 ft | 129 kts | 62° |
| 2026-05-04 15:26 | 31.70833 | 118.79846 | 992 ft | 129 kts | 62° |
| 2026-05-04 15:26 | 31.71774 | 118.81634 | 654 ft | 128 kts | 60° |
| 2026-05-04 15:27 | 31.72255 | 118.82503 | 488 ft | 127 kts | 59° |
| 2026-05-04 15:27 | 31.73181 | 118.84248 | 152 ft | 125 kts | 60° |
| 2026-05-04 15:28 | 31.73965 | 118.85740 | 57 ft | 67 kts | 55° |
| 2026-05-04 15:28 | 31.74174 | 118.86118 | 57 ft | 51 kts | 59° |